createdAt,value
2023-09-24T00:00:58.898Z,0.00
2023-09-24T00:01:58.161Z,0.00
2023-09-24T00:02:59.424Z,0.00
2023-09-24T00:03:58.644Z,0.04
2023-09-24T00:04:58.802Z,0.00
2023-09-24T00:05:58.138Z,0.02
2023-09-24T00:06:58.287Z,0.00
2023-09-24T00:07:58.487Z,0.00
2023-09-24T00:08:59.688Z,0.02
2023-09-24T00:09:58.865Z,0.00
2023-09-24T00:10:58.133Z,0.00
2023-09-24T00:11:58.799Z,0.00
2023-09-24T00:12:59.571Z,0.00
2023-09-24T00:13:58.808Z,0.00
2023-09-24T00:14:58.083Z,0.00
2023-09-24T00:15:58.305Z,0.00
2023-09-24T00:16:58.499Z,0.00
2023-09-24T00:17:57.897Z,0.00
2023-09-24T00:18:57.942Z,0.00
2023-09-24T00:19:58.194Z,0.02
2023-09-24T00:20:58.445Z,0.02
2023-09-24T00:21:57.693Z,0.00
2023-09-24T00:22:57.932Z,0.00
2023-09-24T00:23:58.175Z,0.00
2023-09-24T00:24:59.419Z,0.00
2023-09-24T00:25:57.606Z,0.02
2023-09-24T00:26:57.830Z,0.00
2023-09-24T00:27:58.238Z,0.00
2023-09-24T00:28:58.334Z,0.00
2023-09-24T00:29:58.533Z,0.00
2023-09-24T00:30:57.688Z,0.00
2023-09-24T00:31:57.998Z,0.00
2023-09-24T00:32:58.168Z,0.00
2023-09-24T00:33:58.363Z,0.00
2023-09-24T00:34:58.591Z,0.00
2023-09-24T00:35:57.792Z,0.00
2023-09-24T00:36:58.013Z,0.02
2023-09-24T00:37:58.245Z,0.02
2023-09-24T00:38:58.583Z,0.00
2023-09-24T00:39:57.853Z,0.04
2023-09-24T00:40:57.938Z,0.00
2023-09-24T00:41:58.221Z,0.02
2023-09-24T00:42:58.442Z,0.00
2023-09-24T00:43:57.647Z,0.04
2023-09-24T00:44:57.909Z,0.02
2023-09-24T00:45:58.205Z,0.02
2023-09-24T00:46:58.337Z,0.00
2023-09-24T00:47:58.000Z,0.02
2023-09-24T00:48:57.850Z,0.02
2023-09-24T00:49:59.050Z,0.02
2023-09-24T00:50:57.348Z,0.00
2023-09-24T00:51:57.559Z,0.00
2023-09-24T00:52:57.817Z,0.00
2023-09-24T00:53:58.082Z,0.00
2023-09-24T00:54:57.284Z,0.00
2023-09-24T00:55:57.527Z,0.00
2023-09-24T00:56:57.780Z,0.00
2023-09-24T00:57:57.975Z,0.00
2023-09-24T00:58:57.228Z,0.00
2023-09-24T00:59:57.488Z,0.02
2023-09-24T01:00:57.628Z,0.00
2023-09-24T01:01:57.934Z,0.01
2023-09-24T01:02:58.155Z,0.02
2023-09-24T01:03:57.461Z,0.02
2023-09-24T01:04:57.554Z,0.00
2023-09-24T01:05:57.870Z,0.00
2023-09-24T01:06:58.033Z,0.00
2023-09-24T01:07:57.462Z,0.02
2023-09-24T01:08:58.510Z,0.00
2023-09-24T01:09:58.662Z,0.00
2023-09-24T01:10:57.958Z,0.00
2023-09-24T01:11:57.180Z,0.00
2023-09-24T01:12:57.626Z,0.02
2023-09-24T01:13:57.621Z,0.00
2023-09-24T01:14:57.859Z,0.00
2023-09-24T01:15:57.060Z,0.00
2023-09-24T01:16:57.266Z,0.02
2023-09-24T01:17:57.609Z,0.00
2023-09-24T01:18:57.894Z,0.02
2023-09-24T01:19:56.922Z,0.00
2023-09-24T01:20:57.203Z,0.00
2023-09-24T01:21:57.410Z,0.02
2023-09-24T01:22:57.660Z,0.02
2023-09-24T01:23:56.904Z,0.00
2023-09-24T01:24:57.197Z,0.00
2023-09-24T01:25:57.514Z,0.02
2023-09-24T01:26:57.745Z,0.00
2023-09-24T01:27:56.833Z,0.00
2023-09-24T01:28:57.105Z,0.00
2023-09-24T01:29:57.461Z,0.00
2023-09-24T01:30:58.534Z,0.00
2023-09-24T01:31:57.745Z,0.00
2023-09-24T01:32:58.076Z,0.02
2023-09-24T01:33:57.397Z,0.00
2023-09-24T01:34:57.564Z,0.00
2023-09-24T01:35:56.774Z,0.00
2023-09-24T01:36:56.958Z,0.00
2023-09-24T01:37:57.196Z,0.00
2023-09-24T01:38:57.491Z,0.00
2023-09-24T01:39:56.630Z,0.00
2023-09-24T01:40:56.986Z,0.00
2023-09-24T01:41:57.174Z,0.00
2023-09-24T01:42:57.376Z,0.00
2023-09-24T01:43:56.573Z,0.00
2023-09-24T01:44:56.839Z,0.00
2023-09-24T01:46:57.333Z,0.00
2023-09-24T01:47:58.593Z,0.00
2023-09-24T01:48:56.864Z,0.02
2023-09-24T01:49:56.971Z,0.00
2023-09-24T01:50:57.266Z,0.02
2023-09-24T01:51:57.482Z,0.00
2023-09-24T01:52:56.633Z,0.00
2023-09-24T01:53:57.925Z,0.02
2023-09-24T01:54:57.135Z,0.00
2023-09-24T01:55:57.378Z,0.02
2023-09-24T01:56:56.637Z,0.00
2023-09-24T01:57:57.004Z,0.00
2023-09-24T01:58:57.081Z,0.00
2023-09-24T01:59:58.330Z,0.00
2023-09-24T02:00:56.585Z,0.00
2023-09-24T02:01:57.770Z,0.00
2023-09-24T02:02:57.123Z,0.00
2023-09-24T02:03:57.368Z,0.00
2023-09-24T02:04:57.469Z,0.00
2023-09-24T02:05:57.691Z,0.00
2023-09-24T02:06:56.959Z,0.00
2023-09-24T02:07:57.222Z,0.00
2023-09-24T02:08:56.496Z,0.00
2023-09-24T02:09:57.657Z,0.00
2023-09-24T02:10:56.972Z,0.00
2023-09-24T02:11:57.196Z,0.00
2023-09-24T02:12:56.544Z,0.00
2023-09-24T02:13:56.669Z,0.02
2023-09-24T02:14:57.135Z,0.00
2023-09-24T02:15:56.121Z,0.00
2023-09-24T02:16:56.372Z,0.00
2023-09-24T02:17:56.693Z,0.00
2023-09-24T02:18:56.895Z,0.02
2023-09-24T02:19:56.149Z,0.02
2023-09-24T02:20:57.418Z,0.00
2023-09-24T02:21:56.628Z,0.02
2023-09-24T02:22:56.897Z,0.00
2023-09-24T02:23:56.177Z,0.02
2023-09-24T02:24:56.420Z,0.02
2023-09-24T02:25:57.617Z,0.00
2023-09-24T02:26:56.933Z,0.00
2023-09-24T02:27:57.088Z,0.00
2023-09-24T02:28:56.366Z,0.00
2023-09-24T02:29:56.731Z,0.00
2023-09-24T02:30:57.065Z,0.00
2023-09-24T02:31:56.068Z,0.00
2023-09-24T02:32:56.411Z,0.00
2023-09-24T02:33:57.486Z,0.00
2023-09-24T02:34:56.770Z,0.00
2023-09-24T02:35:56.046Z,0.00
2023-09-24T02:36:57.201Z,0.00
2023-09-24T02:37:56.480Z,0.00
2023-09-24T02:38:56.816Z,0.00
2023-09-24T02:39:55.945Z,0.00
2023-09-24T02:40:56.190Z,0.02
2023-09-24T02:41:56.453Z,0.02
2023-09-24T02:42:57.658Z,0.00
2023-09-24T02:43:55.885Z,0.00
2023-09-24T02:44:56.164Z,0.00
2023-09-24T02:45:56.447Z,0.02
2023-09-24T02:46:56.667Z,0.00
2023-09-24T02:47:56.032Z,0.00
2023-09-24T02:48:56.046Z,0.02
2023-09-24T02:49:56.347Z,0.00
2023-09-24T02:50:56.652Z,0.02
2023-09-24T02:51:55.862Z,0.00
2023-09-24T02:52:56.028Z,0.00
2023-09-24T02:53:56.335Z,0.00
2023-09-24T02:54:56.488Z,0.00
2023-09-24T02:55:55.713Z,0.02
2023-09-24T02:56:55.999Z,0.00
2023-09-24T02:57:57.114Z,0.00
2023-09-24T02:58:56.394Z,0.00
2023-09-24T02:59:56.617Z,0.00
2023-09-24T03:00:56.832Z,0.02
2023-09-24T03:01:57.028Z,0.00
2023-09-24T03:02:56.455Z,0.00
2023-09-24T03:03:55.679Z,0.00
2023-09-24T03:04:55.794Z,0.00
2023-09-24T03:05:56.125Z,0.02
2023-09-24T03:06:56.361Z,0.00
2023-09-24T03:07:57.567Z,0.00
2023-09-24T03:08:55.829Z,0.00
2023-09-24T03:09:55.988Z,0.00
2023-09-24T03:10:56.222Z,0.02
2023-09-24T03:11:56.471Z,0.00
2023-09-24T03:12:55.641Z,0.02
2023-09-24T03:13:55.817Z,0.00
2023-09-24T03:14:57.085Z,0.00
2023-09-24T03:15:57.232Z,0.00
2023-09-24T03:16:55.441Z,0.02
2023-09-24T03:17:56.010Z,0.00
2023-09-24T03:18:55.915Z,0.00
2023-09-24T03:19:57.073Z,0.00
2023-09-24T03:20:56.312Z,0.02
2023-09-24T03:21:56.579Z,0.04
2023-09-24T03:22:55.789Z,0.00
2023-09-24T03:23:56.145Z,0.00
2023-09-24T03:24:55.241Z,0.00
2023-09-24T03:25:55.511Z,0.02
2023-09-24T03:26:55.709Z,0.00
2023-09-24T03:27:56.912Z,0.02
2023-09-24T03:28:55.155Z,0.02
2023-09-24T03:29:55.444Z,0.00
2023-09-24T03:30:55.581Z,0.00
2023-09-24T03:31:56.809Z,0.00
2023-09-24T03:32:57.044Z,0.02
2023-09-24T03:33:55.298Z,0.02
2023-09-24T03:34:56.500Z,0.00
2023-09-24T03:35:55.766Z,0.00
2023-09-24T03:36:55.949Z,0.00
2023-09-24T03:37:55.393Z,0.00
2023-09-24T03:38:55.411Z,0.02
2023-09-24T03:39:55.731Z,0.02
2023-09-24T03:40:56.065Z,0.00
2023-09-24T03:41:56.049Z,0.00
2023-09-24T03:42:55.321Z,0.00
2023-09-24T03:43:56.544Z,0.00
2023-09-24T03:44:56.999Z,0.00
2023-09-24T03:45:55.037Z,0.00
2023-09-24T03:46:56.325Z,0.02
2023-09-24T03:47:55.650Z,0.00
2023-09-24T03:48:55.794Z,0.00
2023-09-24T03:49:54.982Z,0.02
2023-09-24T03:50:55.216Z,0.02
2023-09-24T03:51:55.459Z,0.05
2023-09-24T03:52:55.670Z,0.02
2023-09-24T03:53:54.986Z,0.00
2023-09-24T03:54:55.145Z,0.00
2023-09-24T03:55:56.337Z,0.02
2023-09-24T03:56:56.656Z,0.00
2023-09-24T03:57:54.830Z,0.02
2023-09-24T03:58:56.080Z,0.00
2023-09-24T03:59:56.304Z,0.00
2023-09-24T04:00:56.508Z,0.00
2023-09-24T04:01:54.785Z,0.00
2023-09-24T04:02:55.116Z,0.00
2023-09-24T04:03:56.332Z,0.02
2023-09-24T04:04:56.480Z,0.00
2023-09-24T04:05:55.746Z,0.00
2023-09-24T04:06:55.966Z,0.02
2023-09-24T04:07:55.417Z,0.02
2023-09-24T04:08:55.572Z,0.02
2023-09-24T04:09:54.746Z,0.02
2023-09-24T04:10:55.992Z,0.02
2023-09-24T04:11:56.280Z,0.00
2023-09-24T04:12:56.474Z,0.00
2023-09-24T04:13:55.722Z,0.00
2023-09-24T04:14:55.982Z,0.00
2023-09-24T04:15:56.221Z,0.01
2023-09-24T04:16:55.448Z,0.00
2023-09-24T04:17:55.717Z,0.00
2023-09-24T04:18:54.970Z,0.00
2023-09-24T04:19:56.158Z,0.00
2023-09-24T04:20:55.445Z,0.00
2023-09-24T04:21:55.565Z,0.02
2023-09-24T04:22:54.842Z,0.02
2023-09-24T04:23:55.168Z,0.02
2023-09-24T04:24:56.312Z,0.00
2023-09-24T04:25:55.481Z,0.00
2023-09-24T04:26:54.815Z,0.00
2023-09-24T04:27:55.032Z,0.00
2023-09-24T04:28:55.286Z,0.05
2023-09-24T04:29:55.463Z,0.02
2023-09-24T04:30:55.760Z,0.02
2023-09-24T04:31:54.994Z,0.02
2023-09-24T04:32:55.549Z,0.02
2023-09-24T04:33:56.136Z,0.02
2023-09-24T04:34:55.736Z,0.01
2023-09-24T04:35:55.919Z,0.01
2023-09-24T04:36:55.169Z,0.05
2023-09-24T04:37:55.310Z,0.01
2023-09-24T04:38:55.602Z,0.03
2023-09-24T04:39:54.840Z,0.02
2023-09-24T04:40:55.068Z,0.07
2023-09-24T04:41:54.440Z,0.03
2023-09-24T04:42:55.497Z,0.08
2023-09-24T04:43:54.766Z,0.10
2023-09-24T04:44:55.032Z,0.08
2023-09-24T04:45:54.268Z,0.08
2023-09-24T04:46:55.488Z,0.15
2023-09-24T04:47:55.770Z,0.16
2023-09-24T04:48:56.087Z,0.38
2023-09-24T04:49:54.242Z,0.32
2023-09-24T04:50:54.471Z,0.37
2023-09-24T04:51:54.723Z,0.38
2023-09-24T04:52:54.981Z,0.41
2023-09-24T04:53:54.234Z,0.60
2023-09-24T04:54:54.419Z,0.66
2023-09-24T04:55:54.655Z,0.78
2023-09-24T04:56:55.031Z,0.80
2023-09-24T04:57:54.092Z,0.92
2023-09-24T04:58:54.418Z,1.28
2023-09-24T04:59:54.773Z,1.19
2023-09-24T05:00:54.885Z,1.50
2023-09-24T05:01:54.116Z,1.69
2023-09-24T05:02:55.430Z,1.92
2023-09-24T05:03:55.317Z,2.19
2023-09-24T05:04:55.176Z,2.48
2023-09-24T05:05:54.236Z,3.10
2023-09-24T05:06:54.398Z,3.30
2023-09-24T05:07:54.766Z,3.99
2023-09-24T05:08:54.897Z,4.28
2023-09-24T05:09:54.158Z,4.62
2023-09-24T05:10:54.309Z,4.89
2023-09-24T05:11:54.557Z,6.01
2023-09-24T05:12:54.804Z,7.28
2023-09-24T05:13:54.001Z,8.77
2023-09-24T05:14:54.294Z,10.47
2023-09-24T05:15:54.470Z,12.40
2023-09-24T05:16:54.737Z,14.52
2023-09-24T05:17:53.962Z,16.74
2023-09-24T05:18:54.222Z,19.08
2023-09-24T05:19:54.409Z,21.50
2023-09-24T05:20:54.592Z,24.07
2023-09-24T05:21:53.768Z,26.76
2023-09-24T05:22:54.065Z,29.70
2023-09-24T05:23:54.326Z,32.84
2023-09-24T05:24:54.502Z,36.05
2023-09-24T05:25:53.711Z,40.52
2023-09-24T05:26:54.124Z,45.99
2023-09-24T05:27:54.163Z,51.06
2023-09-24T05:28:54.589Z,56.71
2023-09-24T05:29:53.684Z,62.51
2023-09-24T05:30:53.918Z,68.90
2023-09-24T05:31:54.066Z,76.96
2023-09-24T05:32:54.458Z,84.59
2023-09-24T05:33:54.565Z,93.23
2023-09-24T05:34:53.793Z,102.37
2023-09-24T05:35:54.020Z,111.33
2023-09-24T05:36:54.222Z,119.91
2023-09-24T05:37:55.393Z,129.01
2023-09-24T05:38:54.646Z,140.19
2023-09-24T05:39:54.858Z,150.81
2023-09-24T05:40:55.106Z,160.65
2023-09-24T05:41:54.489Z,171.87
2023-09-24T05:42:53.609Z,183.37
2023-09-24T05:43:53.848Z,196.79
2023-09-24T05:44:54.181Z,209.09
2023-09-24T05:45:54.328Z,222.14
2023-09-24T05:46:53.565Z,235.91
2023-09-24T05:47:54.149Z,248.47
2023-09-24T05:48:54.155Z,260.06
2023-09-24T05:49:53.285Z,270.84
2023-09-24T05:50:53.601Z,284.43
2023-09-24T05:51:53.753Z,294.81
2023-09-24T05:52:54.013Z,304.93
2023-09-24T05:53:54.378Z,324.19
2023-09-24T05:54:53.562Z,351.23
2023-09-24T05:55:56.141Z,397.95
2023-09-24T05:56:54.098Z,435.05
2023-09-24T05:57:53.267Z,452.98
2023-09-24T05:58:53.494Z,436.91
2023-09-24T05:59:53.789Z,410.32
2023-09-24T06:00:54.008Z,407.19
2023-09-24T06:01:53.207Z,423.60
2023-09-24T06:02:53.781Z,441.04
2023-09-24T06:03:54.066Z,453.89
2023-09-24T06:04:54.034Z,483.53
2023-09-24T06:05:53.192Z,490.96
2023-09-24T06:06:53.632Z,493.99
2023-09-24T06:07:53.705Z,503.98
2023-09-24T06:08:53.971Z,510.11
2023-09-24T06:09:54.155Z,558.40
2023-09-24T06:10:53.528Z,551.83
2023-09-24T06:11:54.695Z,563.51
2023-09-24T06:12:53.987Z,524.34
2023-09-24T06:13:53.107Z,543.34
2023-09-24T06:14:53.457Z,528.71
2023-09-24T06:15:53.660Z,523.85
2023-09-24T06:16:53.897Z,528.16
2023-09-24T06:17:53.168Z,533.54
2023-09-24T06:18:53.423Z,614.66
2023-09-24T06:19:53.564Z,628.58
2023-09-24T06:20:53.828Z,639.53
2023-09-24T06:21:53.119Z,647.89
2023-09-24T06:22:54.167Z,661.00
2023-09-24T06:23:53.473Z,669.03
2023-09-24T06:24:54.626Z,684.57
2023-09-24T06:25:53.991Z,713.62
2023-09-24T06:26:53.166Z,715.09
2023-09-24T06:27:53.350Z,729.07
2023-09-24T06:29:08.245Z,741.24
2023-09-24T06:29:54.890Z,756.70
2023-09-24T06:30:56.826Z,772.07
2023-09-24T06:31:54.224Z,784.67
2023-09-24T06:32:54.001Z,797.63
2023-09-24T06:33:53.989Z,816.98
2023-09-24T06:34:53.808Z,835.95
2023-09-24T06:35:54.134Z,847.25
2023-09-24T06:36:54.282Z,848.97
2023-09-24T06:37:53.530Z,856.03
2023-09-24T06:38:52.841Z,878.05
2023-09-24T06:39:53.869Z,879.20
2023-09-24T06:40:53.149Z,880.41
2023-09-24T06:41:53.484Z,886.53
2023-09-24T06:42:53.553Z,891.78
2023-09-24T06:43:52.727Z,898.02
2023-09-24T06:44:52.993Z,906.96
2023-09-24T06:45:53.174Z,907.09
2023-09-24T06:46:53.368Z,908.80
2023-09-24T06:47:53.650Z,909.41
2023-09-24T06:48:52.841Z,904.96
2023-09-24T06:49:52.985Z,906.70
2023-09-24T06:50:53.261Z,958.17
2023-09-24T06:51:53.395Z,875.56
2023-09-24T06:52:52.577Z,874.64
2023-09-24T06:53:52.805Z,873.62
2023-09-24T06:54:53.012Z,872.65
2023-09-24T06:55:53.262Z,898.70
2023-09-24T06:56:53.490Z,896.66
2023-09-24T06:57:52.651Z,893.76
2023-09-24T06:58:53.782Z,861.96
2023-09-24T06:59:54.022Z,906.78
2023-09-24T07:00:53.271Z,884.89
2023-09-24T07:01:52.464Z,814.72
2023-09-24T07:02:53.772Z,844.56
2023-09-24T07:03:53.581Z,831.93
2023-09-24T07:04:53.098Z,828.19
2023-09-24T07:05:53.410Z,882.65
2023-09-24T07:06:52.615Z,826.11
2023-09-24T07:07:52.671Z,806.62
2023-09-24T07:08:52.925Z,789.82
2023-09-24T07:09:54.190Z,771.03
2023-09-24T07:10:53.230Z,752.25
2023-09-24T07:11:52.648Z,744.13
2023-09-24T07:12:52.808Z,733.96
2023-09-24T07:13:52.926Z,713.11
2023-09-24T07:14:53.190Z,699.21
2023-09-24T07:15:52.337Z,690.48
2023-09-24T07:16:52.541Z,686.34
2023-09-24T07:17:52.818Z,680.04
2023-09-24T07:18:53.164Z,693.22
2023-09-24T07:19:52.178Z,684.51
2023-09-24T07:20:52.439Z,689.21
2023-09-24T07:21:52.657Z,693.79
2023-09-24T07:22:52.873Z,698.17
2023-09-24T07:23:54.063Z,702.44
2023-09-24T07:24:52.285Z,707.28
2023-09-24T07:25:53.452Z,709.18
2023-09-24T07:26:53.719Z,703.52
2023-09-24T07:27:52.955Z,709.89
2023-09-24T07:28:52.116Z,721.03
2023-09-24T07:29:52.447Z,722.42
2023-09-24T07:30:52.566Z,728.33
2023-09-24T07:31:53.769Z,731.16
2023-09-24T07:32:53.996Z,735.00
2023-09-24T07:33:53.170Z,739.44
2023-09-24T07:34:52.438Z,742.08
2023-09-24T07:35:53.102Z,744.82
2023-09-24T07:37:11.525Z,747.87
2023-09-24T07:37:52.946Z,748.36
2023-09-24T07:38:52.204Z,752.14
2023-09-24T07:39:52.359Z,750.54
2023-09-24T07:40:52.582Z,755.40
2023-09-24T07:41:52.980Z,759.59
2023-09-24T07:42:52.986Z,762.39
2023-09-24T07:43:53.193Z,765.89
2023-09-24T07:44:52.445Z,768.36
2023-09-24T07:45:52.745Z,769.78
2023-09-24T07:46:52.786Z,771.68
2023-09-24T07:47:52.350Z,773.78
2023-09-24T07:48:52.332Z,759.01
2023-09-24T07:49:53.415Z,752.44
2023-09-24T07:50:53.788Z,778.69
2023-09-24T07:51:51.828Z,785.49
2023-09-24T07:52:52.062Z,789.51
2023-09-24T07:53:52.778Z,792.36
2023-09-24T07:54:52.499Z,798.12
2023-09-24T07:55:51.678Z,797.68
2023-09-24T07:56:51.965Z,802.15
2023-09-24T07:57:52.221Z,802.31
2023-09-24T07:58:52.271Z,807.32
2023-09-24T07:59:52.570Z,808.28
2023-09-24T08:00:51.696Z,801.44
2023-09-24T08:01:51.946Z,811.54
2023-09-24T08:02:52.189Z,816.21
2023-09-24T08:03:54.583Z,817.11
2023-09-24T08:04:52.621Z,822.37
2023-09-24T08:05:51.935Z,823.62
2023-09-24T08:06:52.895Z,827.75
2023-09-24T08:07:52.146Z,831.17
2023-09-24T08:08:59.807Z,833.25
2023-09-24T08:09:52.573Z,829.72
2023-09-24T08:10:51.963Z,835.82
2023-09-24T08:11:52.026Z,841.36
2023-09-24T08:12:53.054Z,847.32
2023-09-24T08:13:54.209Z,845.93
2023-09-24T08:14:51.553Z,851.39
2023-09-24T08:15:51.890Z,853.87
2023-09-24T08:16:52.373Z,854.73
2023-09-24T08:17:52.287Z,856.74
2023-09-24T08:18:52.592Z,862.62
2023-09-24T08:19:51.568Z,865.35
2023-09-24T08:20:51.860Z,867.67
2023-09-24T08:21:52.012Z,865.96
2023-09-24T08:22:52.239Z,872.93
2023-09-24T08:23:51.646Z,875.53
2023-09-24T08:24:51.578Z,876.06
2023-09-24T08:25:51.794Z,882.77
2023-09-24T08:26:52.961Z,888.50
2023-09-24T08:27:52.192Z,891.02
2023-09-24T08:28:51.487Z,890.37
2023-09-24T08:29:52.649Z,894.00
2023-09-24T08:30:52.719Z,896.01
2023-09-24T08:31:52.015Z,898.83
2023-09-24T08:32:52.380Z,900.40
2023-09-24T08:33:51.670Z,902.37
2023-09-24T08:34:51.651Z,903.73
2023-09-24T08:35:51.844Z,904.93
2023-09-24T08:36:52.008Z,910.69
2023-09-24T08:37:51.186Z,912.95
2023-09-24T08:38:51.411Z,918.09
2023-09-24T08:39:51.631Z,923.17
2023-09-24T08:40:51.901Z,917.42
2023-09-24T08:41:52.046Z,932.43
2023-09-24T08:42:51.240Z,929.58
2023-09-24T08:43:51.699Z,933.64
2023-09-24T08:44:51.658Z,943.30
2023-09-24T08:45:51.819Z,944.51
2023-09-24T08:46:51.101Z,950.34
2023-09-24T08:47:51.233Z,955.55
2023-09-24T08:48:51.771Z,959.34
2023-09-24T08:49:51.616Z,961.82
2023-09-24T08:50:51.870Z,962.63
2023-09-24T08:51:50.949Z,961.68
2023-09-24T08:52:51.287Z,967.71
2023-09-24T08:53:51.418Z,972.35
2023-09-24T08:54:51.517Z,975.51
2023-09-24T08:55:51.858Z,976.14
2023-09-24T08:56:50.912Z,979.40
2023-09-24T08:57:51.045Z,981.18
2023-09-24T08:58:51.412Z,986.16
2023-09-24T08:59:51.534Z,992.45
2023-09-24T09:00:51.760Z,994.36
2023-09-24T09:01:50.843Z,994.38
2023-09-24T09:02:51.101Z,998.69
2023-09-24T09:03:51.354Z,1004.26
2023-09-24T09:04:51.626Z,1008.05
2023-09-24T09:05:51.656Z,1012.35
2023-09-24T09:06:51.753Z,1018.01
2023-09-24T09:07:50.860Z,1013.84
2023-09-24T09:08:52.358Z,1016.56
2023-09-24T09:09:52.219Z,1024.60
2023-09-24T09:10:51.483Z,1028.98
2023-09-24T09:11:52.679Z,1032.27
2023-09-24T09:12:50.776Z,1032.14
2023-09-24T09:13:51.918Z,1036.67
2023-09-24T09:14:51.167Z,1045.33
2023-09-24T09:15:52.272Z,1055.30
2023-09-24T09:16:51.603Z,1060.54
2023-09-24T09:17:50.834Z,1063.09
2023-09-24T09:18:51.128Z,1052.66
2023-09-24T09:19:51.073Z,1064.41
2023-09-24T09:20:51.256Z,1050.81
2023-09-24T09:21:51.382Z,1023.42
2023-09-24T09:22:50.574Z,1069.50
2023-09-24T09:23:50.812Z,1048.41
2023-09-24T09:24:50.981Z,1085.06
2023-09-24T09:25:51.210Z,1085.34
2023-09-24T09:26:51.257Z,1089.41
2023-09-24T09:27:51.956Z,1092.18
2023-09-24T09:28:50.557Z,1095.26
2023-09-24T09:29:50.711Z,1096.88
2023-09-24T09:30:50.948Z,1100.33
2023-09-24T09:31:51.040Z,1103.28
2023-09-24T09:32:51.497Z,1103.78
2023-09-24T09:33:50.495Z,1105.81
2023-09-24T09:34:50.569Z,1108.26
2023-09-24T09:35:50.757Z,1071.68
2023-09-24T09:36:50.949Z,970.71
2023-09-24T09:37:51.099Z,1003.91
2023-09-24T09:38:51.446Z,1097.07
2023-09-24T09:39:50.474Z,1114.23
2023-09-24T09:40:51.595Z,1103.00
2023-09-24T09:41:50.855Z,1113.26
2023-09-24T09:42:51.172Z,1112.88
2023-09-24T09:43:51.216Z,1107.40
2023-09-24T09:44:50.463Z,1099.83
2023-09-24T09:45:50.532Z,1103.46
2023-09-24T09:46:50.723Z,1114.74
2023-09-24T09:47:50.978Z,1116.54
2023-09-24T09:48:51.243Z,1115.35
2023-09-24T09:49:50.235Z,1115.74
2023-09-24T09:50:50.483Z,1118.02
2023-09-24T09:51:51.634Z,1116.92
2023-09-24T09:52:50.800Z,1120.73
2023-09-24T09:53:51.046Z,1120.69
2023-09-24T09:54:50.314Z,1116.54
2023-09-24T09:55:50.311Z,1119.97
2023-09-24T09:56:50.552Z,1119.94
2023-09-24T09:57:50.705Z,1119.75
2023-09-24T09:58:51.230Z,1117.16
2023-09-24T09:59:50.025Z,1118.91
2023-09-24T10:00:50.196Z,1118.33
2023-09-24T10:01:50.377Z,1118.60
2023-09-24T10:02:50.810Z,1119.50
2023-09-24T10:03:50.755Z,1124.49
2023-09-24T10:04:50.876Z,1121.86
2023-09-24T10:05:50.159Z,1122.05
2023-09-24T10:06:50.152Z,1124.98
2023-09-24T10:07:50.316Z,1125.86
2023-09-24T10:08:50.903Z,1126.24
2023-09-24T10:09:50.651Z,1124.79
2023-09-24T10:10:50.802Z,1125.23
2023-09-24T10:11:49.948Z,1126.58
2023-09-24T10:12:50.084Z,1126.97
2023-09-24T10:13:50.250Z,1130.06
2023-09-24T10:14:50.476Z,1125.47
2023-09-24T10:15:50.563Z,1132.67
2023-09-24T10:16:50.713Z,1131.83
2023-09-24T10:17:49.885Z,1134.74
2023-09-24T10:18:50.378Z,1134.83
2023-09-24T10:19:50.156Z,1136.03
2023-09-24T10:20:50.411Z,1135.97
2023-09-24T10:21:50.476Z,1137.54
2023-09-24T10:22:50.652Z,1137.09
2023-09-24T10:23:49.914Z,1139.68
2023-09-24T10:24:50.065Z,1092.29
2023-09-24T10:25:50.161Z,1143.08
2023-09-24T10:26:50.501Z,1137.00
2023-09-24T10:28:05.672Z,1143.94
2023-09-24T10:28:51.030Z,1146.18
2023-09-24T10:29:50.771Z,1149.99
2023-09-24T10:30:49.912Z,1149.04
2023-09-24T10:31:51.136Z,1150.71
2023-09-24T10:32:50.536Z,1154.12
2023-09-24T10:33:51.431Z,1156.23
2023-09-24T10:34:50.524Z,1156.48
2023-09-24T10:35:49.699Z,1158.43
2023-09-24T10:36:49.816Z,1160.74
2023-09-24T10:37:50.080Z,1162.77
2023-09-24T10:38:50.510Z,1165.81
2023-09-24T10:39:50.270Z,1168.36
2023-09-24T10:40:51.351Z,1167.29
2023-09-24T10:41:49.531Z,1168.08
2023-09-24T10:42:50.725Z,1173.37
2023-09-24T10:43:49.815Z,1173.47
2023-09-24T10:44:50.132Z,1174.57
2023-09-24T10:45:50.337Z,1178.68
2023-09-24T10:46:57.581Z,1179.01
2023-09-24T10:47:50.449Z,1182.42
2023-09-24T10:48:50.363Z,1184.42
2023-09-24T10:49:49.756Z,1185.13
2023-09-24T10:50:49.969Z,1183.65
2023-09-24T10:51:50.032Z,1184.34
2023-09-24T10:52:50.251Z,1188.65
2023-09-24T10:53:49.323Z,1190.40
2023-09-24T10:54:49.456Z,1194.76
2023-09-24T10:56:01.289Z,1197.47
2023-09-24T10:56:50.871Z,1197.72
2023-09-24T10:57:49.962Z,1198.21
2023-09-24T10:58:50.152Z,1198.77
2023-09-24T10:59:49.339Z,1200.39
2023-09-24T11:00:49.455Z,1202.21
2023-09-24T11:01:50.529Z,1201.29
2023-09-24T11:02:49.839Z,1201.75
2023-09-24T11:03:50.863Z,1202.67
2023-09-24T11:04:49.984Z,1204.73
2023-09-24T11:05:50.532Z,1202.51
2023-09-24T11:06:49.275Z,1204.18
2023-09-24T11:07:49.404Z,1203.13
2023-09-24T11:08:49.993Z,1202.70
2023-09-24T11:09:49.748Z,1205.14
2023-09-24T11:10:49.936Z,1202.98
2023-09-24T11:11:51.188Z,1203.62
2023-09-24T11:12:49.121Z,1204.79
2023-09-24T11:13:50.229Z,1204.89
2023-09-24T11:14:55.079Z,1204.82
2023-09-24T11:15:50.725Z,1203.53
2023-09-24T11:16:49.795Z,1205.20
2023-09-24T11:17:50.837Z,1206.91
2023-09-24T11:18:50.546Z,1207.35
2023-09-24T11:19:49.086Z,1207.29
2023-09-24T11:20:50.370Z,1206.42
2023-09-24T11:21:50.328Z,1207.53
2023-09-24T11:22:49.495Z,1205.45
2023-09-24T11:23:49.732Z,1207.35
2023-09-24T11:24:50.763Z,1208.09
2023-09-24T11:25:48.911Z,1207.01
2023-09-24T11:26:49.145Z,1208.58
2023-09-24T11:27:49.191Z,1207.40
2023-09-24T11:28:49.465Z,1209.88
2023-09-24T11:29:49.597Z,1207.25
2023-09-24T11:30:49.565Z,1207.68
2023-09-24T11:31:49.749Z,1211.26
2023-09-24T11:32:50.807Z,1210.73
2023-09-24T11:33:49.023Z,1201.81
2023-09-24T11:34:49.966Z,1213.62
2023-09-24T11:35:49.144Z,1214.15
2023-09-24T11:36:50.272Z,1216.39
2023-09-24T11:37:49.432Z,1212.76
2023-09-24T11:38:51.802Z,1214.25
2023-09-24T11:39:49.683Z,1214.46
2023-09-24T11:40:48.757Z,1216.27
2023-09-24T11:41:49.513Z,1216.17
2023-09-24T11:42:49.074Z,1218.33
2023-09-24T11:43:49.381Z,1218.79
2023-09-24T11:44:49.413Z,1217.22
2023-09-24T11:45:49.814Z,1217.16
2023-09-24T11:46:49.653Z,1216.49
2023-09-24T11:47:49.857Z,1214.51
2023-09-24T11:48:49.179Z,1215.11
2023-09-24T11:49:49.028Z,1216.02
2023-09-24T11:50:49.125Z,1215.26
2023-09-24T11:51:49.236Z,1216.61
2023-09-24T11:52:49.401Z,1215.16
2023-09-24T11:53:49.605Z,1212.91
2023-09-24T11:54:49.575Z,1213.23
2023-09-24T11:55:48.827Z,1213.25
2023-09-24T11:56:48.916Z,1213.13
2023-09-24T11:57:49.008Z,1212.15
2023-09-24T11:58:49.367Z,1212.31
2023-09-24T11:59:49.303Z,1212.29
2023-09-24T12:00:51.685Z,1210.86
2023-09-24T12:01:48.464Z,1210.91
2023-09-24T12:02:48.682Z,1212.33
2023-09-24T12:03:49.859Z,1212.37
2023-09-24T12:04:48.947Z,1208.85
2023-09-24T12:05:49.065Z,1211.32
2023-09-24T12:06:49.187Z,1212.05
2023-09-24T12:07:49.298Z,1207.99
2023-09-24T12:08:48.826Z,1209.43
2023-09-24T12:09:48.604Z,1209.25
2023-09-24T12:10:49.738Z,1209.83
2023-09-24T12:11:48.905Z,1207.22
2023-09-24T12:12:49.067Z,1208.17
2023-09-24T12:13:49.770Z,1209.84
2023-09-24T12:14:49.259Z,1207.47
2023-09-24T12:15:48.377Z,1207.83
2023-09-24T12:16:48.435Z,1210.00
2023-09-24T12:17:51.087Z,1208.91
2023-09-24T12:18:48.913Z,1205.92
2023-09-24T12:19:48.830Z,1205.95
2023-09-24T12:20:49.959Z,1207.66
2023-09-24T12:21:49.146Z,1206.94
2023-09-24T12:22:48.205Z,1206.77
2023-09-24T12:23:48.328Z,1206.66
2023-09-24T12:24:48.499Z,1206.75
2023-09-24T12:25:48.699Z,1208.09
2023-09-24T12:26:48.751Z,1208.86
2023-09-24T12:27:48.895Z,1208.97
2023-09-24T12:28:49.128Z,1206.85
2023-09-24T12:29:48.169Z,1206.80
2023-09-24T12:30:48.479Z,1206.20
2023-09-24T12:31:48.414Z,1206.70
2023-09-24T12:32:49.683Z,1206.61
2023-09-24T12:33:49.779Z,1205.35
2023-09-24T12:34:49.845Z,1205.09
2023-09-24T12:35:48.965Z,1206.70
2023-09-24T12:36:48.246Z,1206.73
2023-09-24T12:37:49.269Z,1205.96
2023-09-24T12:38:49.648Z,1205.49
2023-09-24T12:39:48.694Z,1205.16
2023-09-24T12:40:49.692Z,1203.98
2023-09-24T12:41:48.909Z,1203.87
2023-09-24T12:42:47.978Z,1202.85